sensor_id;sensor_type;location;lat;lon;timestamp;pressure;altitude;pressure_sealevel;temperature;humidity
63115;BME280;49208;50.874;6.466;2024-01-10T07:02:31;101634.50;;;-8.77;100.00
63115;BME280;49208;50.874;6.466;2024-01-10T07:04:57;101630.03;;;-8.79;100.00
63115;BME280;49208;50.874;6.466;2024-01-10T07:07:23;101629.22;;;-8.78;100.00
63115;BME280;49208;50.874;6.466;2024-01-10T07:09:48;101631.03;;;-8.77;100.00
63115;BME280;49208;50.874;6.466;2024-01-10T07:12:13;101634.59;;;-8.75;100.00
63115;BME280;49208;50.874;6.466;2024-01-10T07:14:39;101638.06;;;-8.75;100.00
63115;BME280;49208;50.874;6.466;2024-01-10T07:17:04;101642.41;;;-8.74;100.00
63115;BME280;49208;50.874;6.466;2024-01-10T07:19:30;101640.81;;;-8.71;100.00
63115;BME280;49208;50.874;6.466;2024-01-10T07:21:56;101641.91;;;-8.68;100.00
63115;BME280;49208;50.874;6.466;2024-01-10T07:24:21;101642.00;;;-8.66;100.00
63115;BME280;49208;50.874;6.466;2024-01-10T07:26:47;101650.72;;;-8.64;100.00
63115;BME280;49208;50.874;6.466;2024-01-10T07:29:13;101654.19;;;-8.64;100.00
63115;BME280;49208;50.874;6.466;2024-01-10T07:31:38;101648.16;;;-8.64;100.00
63115;BME280;49208;50.874;6.466;2024-01-10T07:34:04;101651.59;;;-8.64;100.00
63115;BME280;49208;50.874;6.466;2024-01-10T07:36:33;101661.31;;;-8.60;100.00
63115;BME280;49208;50.874;6.466;2024-01-10T07:39:01;101654.47;;;-8.59;100.00
63115;BME280;49208;50.874;6.466;2024-01-10T07:41:26;101656.38;;;-8.57;100.00
63115;BME280;49208;50.874;6.466;2024-01-10T07:43:52;101653.06;;;-8.54;100.00
63115;BME280;49208;50.874;6.466;2024-01-10T07:46:17;101654.06;;;-8.52;100.00
63115;BME280;49208;50.874;6.466;2024-01-10T07:48:42;101657.63;;;-8.50;100.00
63115;BME280;49208;50.874;6.466;2024-01-10T07:51:08;101657.00;;;-8.46;100.00
63115;BME280;49208;50.874;6.466;2024-01-10T07:53:33;101658.88;;;-8.43;100.00
63115;BME280;49208;50.874;6.466;2024-01-10T07:55:59;101663.25;;;-8.42;100.00
63115;BME280;49208;50.874;6.466;2024-01-10T07:58:25;101666.78;;;-8.40;100.00
63115;BME280;49208;50.874;6.466;2024-01-10T08:00:51;101663.41;;;-8.39;100.00
63115;BME280;49208;50.874;6.466;2024-01-10T08:03:17;101669.44;;;-8.39;100.00
63115;BME280;49208;50.874;6.466;2024-01-10T08:05:42;101676.56;;;-8.35;100.00
63115;BME280;49208;50.874;6.466;2024-01-10T08:08:08;101671.63;;;-8.31;100.00
63115;BME280;49208;50.874;6.466;2024-01-10T08:10:34;101668.31;;;-8.29;100.00
63115;BME280;49208;50.874;6.466;2024-01-10T08:12:59;101664.91;;;-8.28;100.00
63115;BME280;49208;50.874;6.466;2024-01-10T08:15:25;101665.91;;;-8.26;100.00
63115;BME280;49208;50.874;6.466;2024-01-10T08:17:50;101672.97;;;-8.23;100.00
63115;BME280;49208;50.874;6.466;2024-01-10T08:20:16;101667.19;;;-8.19;100.00
63115;BME280;49208;50.874;6.466;2024-01-10T08:22:46;101664.78;;;-8.16;100.00
63115;BME280;49208;50.874;6.466;2024-01-10T08:25:12;101660.69;;;-8.13;100.00
63115;BME280;49208;50.874;6.466;2024-01-10T08:27:38;101665.13;;;-8.10;100.00
63115;BME280;49208;50.874;6.466;2024-01-10T08:30:04;101669.69;;;-8.06;100.00
63115;BME280;49208;50.874;6.466;2024-01-10T08:32:30;101671.66;;;-8.02;100.00
63115;BME280;49208;50.874;6.466;2024-01-10T08:34:56;101670.06;;;-8.00;100.00
63115;BME280;49208;50.874;6.466;2024-01-10T08:37:22;101673.88;;;-7.93;100.00
63115;BME280;49208;50.874;6.466;2024-01-10T08:39:47;101668.09;;;-7.89;100.00
63115;BME280;49208;50.874;6.466;2024-01-10T08:42:13;101671.84;;;-7.84;100.00
63115;BME280;49208;50.874;6.466;2024-01-10T08:44:38;101675.59;;;-7.79;100.00
63115;BME280;49208;50.874;6.466;2024-01-10T08:47:04;101680.31;;;-7.72;100.00
63115;BME280;49208;50.874;6.466;2024-01-10T08:49:29;101678.16;;;-7.64;100.00
63115;BME280;49208;50.874;6.466;2024-01-10T08:51:55;101675.94;;;-7.58;100.00
63115;BME280;49208;50.874;6.466;2024-01-10T08:54:20;101677.34;;;-7.48;100.00
63115;BME280;49208;50.874;6.466;2024-01-10T08:56:47;101671.91;;;-7.38;100.00
63115;BME280;49208;50.874;6.466;2024-01-10T08:59:13;101667.97;;;-7.31;100.00
63115;BME280;49208;50.874;6.466;2024-01-10T09:01:38;101676.88;;;-7.26;100.00
63115;BME280;49208;50.874;6.466;2024-01-10T09:04:04;101675.19;;;-7.25;100.00
63115;BME280;49208;50.874;6.466;2024-01-10T09:06:31;101677.78;;;-7.25;100.00
63115;BME280;49208;50.874;6.466;2024-01-10T09:08:57;101678.66;;;-7.25;100.00
63115;BME280;49208;50.874;6.466;2024-01-10T09:11:22;101683.91;;;-7.23;100.00
63115;BME280;49208;50.874;6.466;2024-01-10T09:13:47;101682.31;;;-7.21;100.00
63115;BME280;49208;50.874;6.466;2024-01-10T09:16:13;101683.44;;;-7.16;100.00
63115;BME280;49208;50.874;6.466;2024-01-10T09:18:38;101682.81;;;-7.12;100.00
63115;BME280;49208;50.874;6.466;2024-01-10T09:21:05;101685.75;;;-7.06;100.00
63115;BME280;49208;50.874;6.466;2024-01-10T09:23:30;101689.50;;;-7.01;100.00
63115;BME280;49208;50.874;6.466;2024-01-10T09:25:55;101687.31;;;-6.93;100.00
63115;BME280;49208;50.874;6.466;2024-01-10T09:28:21;101692.13;;;-6.84;100.00
63115;BME280;49208;50.874;6.466;2024-01-10T09:30:46;101687.28;;;-6.78;99.38
63115;BME280;49208;50.874;6.466;2024-01-10T09:33:12;101695.53;;;-6.69;99.06
63115;BME280;49208;50.874;6.466;2024-01-10T09:35:38;101690.88;;;-6.60;98.97
63115;BME280;49208;50.874;6.466;2024-01-10T09:38:04;101687.94;;;-6.50;98.17
63115;BME280;49208;50.874;6.466;2024-01-10T09:40:30;101693.63;;;-6.40;97.34
63115;BME280;49208;50.874;6.466;2024-01-10T09:42:55;101694.03;;;-6.33;95.63
63115;BME280;49208;50.874;6.466;2024-01-10T09:45:21;101694.38;;;-6.26;95.47
63115;BME280;49208;50.874;6.466;2024-01-10T09:47:49;101696.44;;;-6.19;95.11
63115;BME280;49208;50.874;6.466;2024-01-10T09:50:14;101685.28;;;-6.18;94.79
63115;BME280;49208;50.874;6.466;2024-01-10T09:52:50;101681.22;;;-6.13;94.77
63115;BME280;49208;50.874;6.466;2024-01-10T09:55:17;101687.53;;;-6.08;93.70
63115;BME280;49208;50.874;6.466;2024-01-10T09:57:45;101682.59;;;-6.03;93.21
63115;BME280;49208;50.874;6.466;2024-01-10T10:00:14;101683.47;;;-6.03;92.82
63115;BME280;49208;50.874;6.466;2024-01-10T10:02:41;101690.53;;;-6.00;92.55
63115;BME280;49208;50.874;6.466;2024-01-10T10:05:17;101693.47;;;-5.93;93.09
63115;BME280;49208;50.874;6.466;2024-01-10T10:07:47;101686.81;;;-5.88;93.06
63115;BME280;49208;50.874;6.466;2024-01-10T10:10:13;101690.69;;;-5.79;93.64
63115;BME280;49208;50.874;6.466;2024-01-10T10:12:51;101679.75;;;-5.74;92.76
63115;BME280;49208;50.874;6.466;2024-01-10T10:15:22;101679.97;;;-5.69;91.65
63115;BME280;49208;50.874;6.466;2024-01-10T10:17:49;101684.41;;;-5.66;90.36
63115;BME280;49208;50.874;6.466;2024-01-10T10:20:21;101683.84;;;-5.61;90.50
63115;BME280;49208;50.874;6.466;2024-01-10T10:23:01;101678.72;;;-5.59;89.87
63115;BME280;49208;50.874;6.466;2024-01-10T10:25:34;101675.47;;;-5.55;89.99
63115;BME280;49208;50.874;6.466;2024-01-10T10:28:01;101675.63;;;-5.52;89.52
63115;BME280;49208;50.874;6.466;2024-01-10T10:30:31;101681.84;;;-5.49;89.81
63115;BME280;49208;50.874;6.466;2024-01-10T10:32:56;101682.72;;;-5.48;89.10
63115;BME280;49208;50.874;6.466;2024-01-10T10:35:22;101681.09;;;-5.46;88.92
63115;BME280;49208;50.874;6.466;2024-01-10T10:37:49;101685.34;;;-5.48;88.74
63115;BME280;49208;50.874;6.466;2024-01-10T10:40:15;101679.44;;;-5.45;88.74
63115;BME280;49208;50.874;6.466;2024-01-10T10:42:44;101673.28;;;-5.47;88.38
63115;BME280;49208;50.874;6.466;2024-01-10T10:45:17;101677.84;;;-5.42;88.44
63115;BME280;49208;50.874;6.466;2024-01-10T10:47:46;101668.38;;;-5.41;88.25
63115;BME280;49208;50.874;6.466;2024-01-10T10:50:24;101667.84;;;-5.52;88.12
63115;BME280;49208;50.874;6.466;2024-01-10T10:52:51;101669.09;;;-5.44;89.47
63115;BME280;49208;50.874;6.466;2024-01-10T10:55:18;101666.88;;;-5.36;89.93
63115;BME280;49208;50.874;6.466;2024-01-10T10:57:48;101662.66;;;-5.34;88.99
63115;BME280;49208;50.874;6.466;2024-01-10T11:00:14;101672.59;;;-5.43;88.19
63115;BME280;49208;50.874;6.466;2024-01-10T11:02:41;101665.94;;;-5.38;88.99
63115;BME280;49208;50.874;6.466;2024-01-10T11:05:07;101667.94;;;-5.33;88.77
63115;BME280;49208;50.874;6.466;2024-01-10T11:07:35;101666.75;;;-5.39;88.94
63115;BME280;49208;50.874;6.466;2024-01-10T11:10:01;101670.66;;;-5.30;89.61
63115;BME280;49208;50.874;6.466;2024-01-10T11:12:48;101670.00;;;-5.25;89.02
63115;BME280;49208;50.874;6.466;2024-01-10T11:23:43;101668.38;;;-5.05;86.33
63115;BME280;49208;50.874;6.466;2024-01-10T11:26:10;101665.03;;;-5.03;86.85
63115;BME280;49208;50.874;6.466;2024-01-10T11:28:36;101657.53;;;-4.97;86.99
63115;BME280;49208;50.874;6.466;2024-01-10T11:31:06;101663.47;;;-4.99;85.57
63115;BME280;49208;50.874;6.466;2024-01-10T11:33:33;101667.69;;;-5.01;85.17
63115;BME280;49208;50.874;6.466;2024-01-10T11:38:31;101669.13;;;-5.08;85.11
63115;BME280;49208;50.874;6.466;2024-01-10T11:40:56;101660.13;;;-5.15;85.21
63115;BME280;49208;50.874;6.466;2024-01-10T11:43:22;101652.97;;;-5.20;86.39
63115;BME280;49208;50.874;6.466;2024-01-10T11:45:56;101654.94;;;-5.15;86.53
63115;BME280;49208;50.874;6.466;2024-01-10T11:48:28;101658.44;;;-5.14;85.58
63115;BME280;49208;50.874;6.466;2024-01-10T11:50:54;101649.16;;;-5.09;85.86
63115;BME280;49208;50.874;6.466;2024-01-10T11:53:42;101641.56;;;-5.04;85.77
63115;BME280;49208;50.874;6.466;2024-01-10T11:56:15;101642.81;;;-4.96;86.14
63115;BME280;49208;50.874;6.466;2024-01-10T11:59:07;101644.03;;;-4.90;84.71
63115;BME280;49208;50.874;6.466;2024-01-10T12:01:38;101638.56;;;-4.76;84.88
63115;BME280;49208;50.874;6.466;2024-01-10T12:04:05;101642.69;;;-4.62;84.20
63115;BME280;49208;50.874;6.466;2024-01-10T12:06:31;101639.59;;;-4.53;84.20
63115;BME280;49208;50.874;6.466;2024-01-10T12:08:57;101631.47;;;-4.41;83.45
63115;BME280;49208;50.874;6.466;2024-01-10T12:11:23;101628.78;;;-4.23;83.97
63115;BME280;49208;50.874;6.466;2024-01-10T12:13:49;101625.13;;;-4.08;82.73
63115;BME280;49208;50.874;6.466;2024-01-10T12:16:14;101635.09;;;-3.97;81.75
63115;BME280;49208;50.874;6.466;2024-01-10T12:18:42;101619.25;;;-3.82;81.10
63115;BME280;49208;50.874;6.466;2024-01-10T12:21:07;101623.50;;;-3.63;81.66
63115;BME280;49208;50.874;6.466;2024-01-10T12:23:35;101619.63;;;-3.52;79.62
63115;BME280;49208;50.874;6.466;2024-01-10T12:26:02;101608.47;;;-3.50;78.03
63115;BME280;49208;50.874;6.466;2024-01-10T12:28:30;101605.41;;;-3.39;78.61
63115;BME280;49208;50.874;6.466;2024-01-10T12:30:55;101595.94;;;-3.37;77.30
63115;BME280;49208;50.874;6.466;2024-01-10T12:33:24;101603.22;;;-3.29;76.78
63115;BME280;49208;50.874;6.466;2024-01-10T12:36:07;101602.69;;;-3.20;77.13
63115;BME280;49208;50.874;6.466;2024-01-10T12:38:33;101607.31;;;-3.13;77.18
63115;BME280;49208;50.874;6.466;2024-01-10T12:40:59;101606.53;;;-3.10;76.20
63115;BME280;49208;50.874;6.466;2024-01-10T12:43:26;101603.47;;;-3.00;76.52
63115;BME280;49208;50.874;6.466;2024-01-10T12:46:07;101611.34;;;-2.98;75.99
63115;BME280;49208;50.874;6.466;2024-01-10T12:48:34;101605.34;;;-2.96;75.83
63115;BME280;49208;50.874;6.466;2024-01-10T12:51:06;101611.59;;;-2.91;75.27
63115;BME280;49208;50.874;6.466;2024-01-10T12:53:35;101603.94;;;-2.88;74.61
63115;BME280;49208;50.874;6.466;2024-01-10T12:56:05;101602.34;;;-2.84;74.56
63115;BME280;49208;50.874;6.466;2024-01-10T12:58:32;101599.97;;;-2.78;73.10
63115;BME280;49208;50.874;6.466;2024-01-10T13:00:57;101594.06;;;-2.72;69.12
63115;BME280;49208;50.874;6.466;2024-01-10T13:03:23;101598.53;;;-2.70;70.56
63115;BME280;49208;50.874;6.466;2024-01-10T13:05:50;101603.03;;;-2.66;69.56
63115;BME280;49208;50.874;6.466;2024-01-10T13:08:15;101607.47;;;-2.61;68.51
63115;BME280;49208;50.874;6.466;2024-01-10T13:10:41;101607.63;;;-2.58;66.70
63115;BME280;49208;50.874;6.466;2024-01-10T13:13:07;101612.03;;;-2.56;67.58
63115;BME280;49208;50.874;6.466;2024-01-10T13:15:32;101610.38;;;-2.54;66.48
63115;BME280;49208;50.874;6.466;2024-01-10T13:17:58;101605.31;;;-2.49;66.29
63115;BME280;49208;50.874;6.466;2024-01-10T13:20:24;101600.41;;;-2.41;65.52
63115;BME280;49208;50.874;6.466;2024-01-10T13:22:50;101599.06;;;-2.30;65.13
63115;BME280;49208;50.874;6.466;2024-01-10T13:25:16;101589.84;;;-2.20;64.71
63115;BME280;49208;50.874;6.466;2024-01-10T13:27:42;101604.91;;;-2.12;65.28
63115;BME280;49208;50.874;6.466;2024-01-10T13:30:08;101598.22;;;-2.05;63.24
63115;BME280;49208;50.874;6.466;2024-01-10T13:32:37;101602.69;;;-2.01;62.26
63115;BME280;49208;50.874;6.466;2024-01-10T13:35:06;101607.13;;;-1.98;63.73
63115;BME280;49208;50.874;6.466;2024-01-10T13:37:31;101618.97;;;-1.83;64.76
63115;BME280;49208;50.874;6.466;2024-01-10T13:39:57;101614.06;;;-1.73;63.14
63115;BME280;49208;50.874;6.466;2024-01-10T13:42:23;101607.38;;;-1.65;62.28
63115;BME280;49208;50.874;6.466;2024-01-10T13:44:49;101616.44;;;-1.54;62.71
63115;BME280;49208;50.874;6.466;2024-01-10T13:47:17;101621.72;;;-1.52;62.22
63115;BME280;49208;50.874;6.466;2024-01-10T13:49:43;101606.09;;;-1.51;61.53
63115;BME280;49208;50.874;6.466;2024-01-10T13:52:08;101618.28;;;-1.51;61.21
63115;BME280;49208;50.874;6.466;2024-01-10T13:54:33;101624.91;;;-1.61;59.66
63115;BME280;49208;50.874;6.466;2024-01-10T13:56:59;101616.19;;;-1.61;61.37
63115;BME280;49208;50.874;6.466;2024-01-10T13:59:24;101618.81;;;-1.61;60.95
63115;BME280;49208;50.874;6.466;2024-01-10T14:01:50;101624.22;;;-1.55;61.27
63115;BME280;49208;50.874;6.466;2024-01-10T14:04:15;101614.81;;;-1.50;62.34
63115;BME280;49208;50.874;6.466;2024-01-10T14:06:40;101620.81;;;-1.53;60.41
63115;BME280;49208;50.874;6.466;2024-01-10T14:09:06;101621.81;;;-1.49;60.53
63115;BME280;49208;50.874;6.466;2024-01-10T14:11:35;101618.22;;;-1.53;61.24
63115;BME280;49208;50.874;6.466;2024-01-10T14:14:00;101614.81;;;-1.50;60.83
63115;BME280;49208;50.874;6.466;2024-01-10T14:16:26;101619.03;;;-1.54;61.72
63115;BME280;49208;50.874;6.466;2024-01-10T14:18:53;101616.47;;;-1.52;61.84
63115;BME280;49208;50.874;6.466;2024-01-10T14:21:20;101630.41;;;-1.52;60.93
63115;BME280;49208;50.874;6.466;2024-01-10T14:23:46;101624.31;;;-1.52;61.53
63115;BME280;49208;50.874;6.466;2024-01-10T14:26:13;101627.88;;;-1.50;62.03
63115;BME280;49208;50.874;6.466;2024-01-10T14:28:38;101623.69;;;-1.45;62.05
63115;BME280;49208;50.874;6.466;2024-01-10T14:31:03;101619.41;;;-1.43;61.41
63115;BME280;49208;50.874;6.466;2024-01-10T14:33:29;101625.50;;;-1.43;61.76
63115;BME280;49208;50.874;6.466;2024-01-10T14:35:55;101616.75;;;-1.45;61.00
63115;BME280;49208;50.874;6.466;2024-01-10T14:38:20;101616.81;;;-1.42;62.15
63115;BME280;49208;50.874;6.466;2024-01-10T14:40:47;101619.53;;;-1.38;62.20
63115;BME280;49208;50.874;6.466;2024-01-10T14:43:12;101620.53;;;-1.35;60.97
63115;BME280;49208;50.874;6.466;2024-01-10T14:45:38;101617.97;;;-1.33;60.44
63115;BME280;49208;50.874;6.466;2024-01-10T14:48:04;101613.44;;;-1.39;60.91
63115;BME280;49208;50.874;6.466;2024-01-10T14:50:29;101619.44;;;-1.42;61.19
63115;BME280;49208;50.874;6.466;2024-01-10T14:52:55;101621.03;;;-1.47;61.18
63115;BME280;49208;50.874;6.466;2024-01-10T14:55:22;101623.44;;;-1.53;60.68
63115;BME280;49208;50.874;6.466;2024-01-10T14:57:48;101633.72;;;-1.57;60.43
63115;BME280;49208;50.874;6.466;2024-01-10T15:00:14;101637.03;;;-1.63;60.92
63115;BME280;49208;50.874;6.466;2024-01-10T15:02:40;101649.94;;;-1.68;62.28
63115;BME280;49208;50.874;6.466;2024-01-10T15:05:06;101642.81;;;-1.72;62.55
63115;BME280;49208;50.874;6.466;2024-01-10T15:07:31;101643.56;;;-1.76;63.10
63115;BME280;49208;50.874;6.466;2024-01-10T15:09:56;101650.31;;;-1.81;63.65
63115;BME280;49208;50.874;6.466;2024-01-10T15:12:24;101646.75;;;-1.85;64.17
63115;BME280;49208;50.874;6.466;2024-01-10T15:14:49;101653.50;;;-1.90;64.17
63115;BME280;49208;50.874;6.466;2024-01-10T15:17:14;101648.97;;;-1.95;64.43
63115;BME280;49208;50.874;6.466;2024-01-10T15:19:40;101669.63;;;-2.01;64.69
63115;BME280;49208;50.874;6.466;2024-01-10T15:22:05;101666.75;;;-2.09;64.74
63115;BME280;49208;50.874;6.466;2024-01-10T15:24:31;101672.56;;;-2.16;65.60
63115;BME280;49208;50.874;6.466;2024-01-10T15:26:57;101678.34;;;-2.25;66.24
63115;BME280;49208;50.874;6.466;2024-01-10T15:29:27;101676.38;;;-2.32;65.88
63115;BME280;49208;50.874;6.466;2024-01-10T15:31:53;101678.69;;;-2.40;66.66
63115;BME280;49208;50.874;6.466;2024-01-10T15:34:19;101688.03;;;-2.45;66.66
63115;BME280;49208;50.874;6.466;2024-01-10T15:36:45;101682.59;;;-2.51;67.17
63115;BME280;49208;50.874;6.466;2024-01-10T15:39:12;101687.53;;;-2.59;67.78
63115;BME280;49208;50.874;6.466;2024-01-10T15:41:38;101686.44;;;-2.64;68.07
63115;BME280;49208;50.874;6.466;2024-01-10T15:44:04;101697.47;;;-2.71;68.62
63115;BME280;49208;50.874;6.466;2024-01-10T15:46:31;101690.22;;;-2.80;68.79
63115;BME280;49208;50.874;6.466;2024-01-10T15:48:56;101695.09;;;-2.88;69.40
63115;BME280;49208;50.874;6.466;2024-01-10T15:51:22;101698.34;;;-2.93;69.61
63115;BME280;49208;50.874;6.466;2024-01-10T15:53:47;101691.19;;;-2.99;70.05
63115;BME280;49208;50.874;6.466;2024-01-10T15:56:15;101698.75;;;-3.05;70.83
63115;BME280;49208;50.874;6.466;2024-01-10T15:58:41;101695.78;;;-3.14;71.58
63115;BME280;49208;50.874;6.466;2024-01-10T16:01:06;101698.84;;;-3.25;71.57
63115;BME280;49208;50.874;6.466;2024-01-10T16:03:33;101696.81;;;-3.32;72.24
63115;BME280;49208;50.874;6.466;2024-01-10T16:05:58;101689.66;;;-3.37;72.70
63115;BME280;49208;50.874;6.466;2024-01-10T16:08:24;101686.78;;;-3.43;72.92
63115;BME280;49208;50.874;6.466;2024-01-10T16:10:50;101692.63;;;-3.49;73.83
63115;BME280;49208;50.874;6.466;2024-01-10T16:13:15;101690.78;;;-3.52;73.55
63115;BME280;49208;50.874;6.466;2024-01-10T16:15:41;101693.47;;;-3.50;73.25
63115;BME280;49208;50.874;6.466;2024-01-10T16:18:06;101688.19;;;-3.52;74.21
63115;BME280;49208;50.874;6.466;2024-01-10T16:20:32;101698.59;;;-3.52;74.50
63115;BME280;49208;50.874;6.466;2024-01-10T16:22:58;101698.47;;;-3.55;74.26
63115;BME280;49208;50.874;6.466;2024-01-10T16:25:23;101703.53;;;-3.58;74.53
63115;BME280;49208;50.874;6.466;2024-01-10T16:27:48;101699.88;;;-3.63;75.10
63115;BME280;49208;50.874;6.466;2024-01-10T16:30:14;101703.16;;;-3.67;75.33
63115;BME280;49208;50.874;6.466;2024-01-10T16:32:39;101695.97;;;-3.73;75.83
63115;BME280;49208;50.874;6.466;2024-01-10T16:35:06;101701.03;;;-3.76;76.23
63115;BME280;49208;50.874;6.466;2024-01-10T16:37:32;101702.69;;;-3.78;76.29
63115;BME280;49208;50.874;6.466;2024-01-10T16:39:57;101697.22;;;-3.84;76.71
63115;BME280;49208;50.874;6.466;2024-01-10T16:42:23;101704.75;;;-3.90;77.31
63115;BME280;49208;50.874;6.466;2024-01-10T16:44:48;101695.75;;;-3.98;78.01
63115;BME280;49208;50.874;6.466;2024-01-10T16:47:14;101701.41;;;-4.07;78.81
63115;BME280;49208;50.874;6.466;2024-01-10T16:49:40;101702.06;;;-4.13;78.83
63115;BME280;49208;50.874;6.466;2024-01-10T16:52:05;101701.84;;;-4.17;79.47
63115;BME280;49208;50.874;6.466;2024-01-10T16:54:31;101696.59;;;-4.19;79.38
63115;BME280;49208;50.874;6.466;2024-01-10T16:56:56;101694.66;;;-4.23;80.04
63115;BME280;49208;50.874;6.466;2024-01-10T16:59:22;101698.84;;;-4.27;80.04
63115;BME280;49208;50.874;6.466;2024-01-10T17:01:48;101706.44;;;-4.31;79.89
63115;BME280;49208;50.874;6.466;2024-01-10T17:04:14;101698.34;;;-4.37;80.05
63115;BME280;49208;50.874;6.466;2024-01-10T17:06:39;101700.69;;;-4.43;80.32
63115;BME280;49208;50.874;6.466;2024-01-10T17:09:05;101690.00;;;-4.50;80.67
63115;BME280;49208;50.874;6.466;2024-01-10T17:11:30;101694.91;;;-4.56;80.92
63115;BME280;49208;50.874;6.466;2024-01-10T17:13:56;101699.84;;;-4.62;81.33
63115;BME280;49208;50.874;6.466;2024-01-10T17:16:21;101701.25;;;-4.69;81.77
63115;BME280;49208;50.874;6.466;2024-01-10T17:18:47;101703.63;;;-4.73;82.13
63115;BME280;49208;50.874;6.466;2024-01-10T17:21:12;101698.97;;;-4.80;82.73
63115;BME280;49208;50.874;6.466;2024-01-10T17:23:38;101699.66;;;-4.84;83.31
63115;BME280;49208;50.874;6.466;2024-01-10T17:26:04;101701.28;;;-4.87;83.31
63115;BME280;49208;50.874;6.466;2024-01-10T17:28:29;101701.28;;;-4.87;83.41
63115;BME280;49208;50.874;6.466;2024-01-10T17:30:55;101697.88;;;-4.85;83.54
63115;BME280;49208;50.874;6.466;2024-01-10T17:33:20;101702.25;;;-4.84;83.63
63115;BME280;49208;50.874;6.466;2024-01-10T17:35:49;101707.34;;;-4.86;83.58
63115;BME280;49208;50.874;6.466;2024-01-10T17:38:16;101710.78;;;-4.87;84.12
63115;BME280;49208;50.874;6.466;2024-01-10T17:40:42;101715.97;;;-4.87;83.63
63115;BME280;49208;50.874;6.466;2024-01-10T17:43:07;101717.75;;;-4.86;83.63
63115;BME280;49208;50.874;6.466;2024-01-10T17:45:33;101717.75;;;-4.86;83.49
63115;BME280;49208;50.874;6.466;2024-01-10T17:47:59;101717.59;;;-4.89;83.50
63115;BME280;49208;50.874;6.466;2024-01-10T17:50:24;101718.38;;;-4.92;84.09
63115;BME280;49208;50.874;6.466;2024-01-10T17:52:50;101725.03;;;-4.97;84.55
63115;BME280;49208;50.874;6.466;2024-01-10T17:55:16;101723.97;;;-5.00;84.87
63115;BME280;49208;50.874;6.466;2024-01-10T17:57:41;101726.44;;;-5.03;85.47
63115;BME280;49208;50.874;6.466;2024-01-10T18:00:07;101724.59;;;-5.06;85.26
63115;BME280;49208;50.874;6.466;2024-01-10T18:02:34;101720.88;;;-5.11;85.39
63115;BME280;49208;50.874;6.466;2024-01-10T18:05:00;101720.66;;;-5.16;85.90
63115;BME280;49208;50.874;6.466;2024-01-10T18:07:25;101723.75;;;-5.23;86.37
63115;BME280;49208;50.874;6.466;2024-01-10T18:09:50;101726.97;;;-5.29;87.13
63115;BME280;49208;50.874;6.466;2024-01-10T18:12:16;101727.63;;;-5.33;87.52
63115;BME280;49208;50.874;6.466;2024-01-10T18:14:41;101723.88;;;-5.38;88.16
63115;BME280;49208;50.874;6.466;2024-01-10T18:17:07;101727.22;;;-5.40;88.06
63115;BME280;49208;50.874;6.466;2024-01-10T18:19:32;101724.56;;;-5.42;88.39
63115;BME280;49208;50.874;6.466;2024-01-10T18:21:57;101725.38;;;-5.43;88.16
63115;BME280;49208;50.874;6.466;2024-01-10T18:24:23;101729.59;;;-5.45;88.53
63115;BME280;49208;50.874;6.466;2024-01-10T18:26:48;101727.75;;;-5.47;88.71
63115;BME280;49208;50.874;6.466;2024-01-10T18:29:14;101726.69;;;-5.51;88.93
63115;BME280;49208;50.874;6.466;2024-01-10T18:31:39;101723.94;;;-5.54;88.60
63115;BME280;49208;50.874;6.466;2024-01-10T18:34:05;101729.06;;;-5.56;89.21
63115;BME280;49208;50.874;6.466;2024-01-10T18:36:31;101730.53;;;-5.61;89.36
63115;BME280;49208;50.874;6.466;2024-01-10T18:39:00;101735.47;;;-5.65;89.54
63115;BME280;49208;50.874;6.466;2024-01-10T18:41:25;101744.81;;;-5.69;89.66
63115;BME280;49208;50.874;6.466;2024-01-10T18:43:53;101742.88;;;-5.73;89.64
63115;BME280;49208;50.874;6.466;2024-01-10T18:46:18;101744.50;;;-5.75;90.01
63115;BME280;49208;50.874;6.466;2024-01-10T18:48:44;101746.94;;;-5.78;90.44
63115;BME280;49208;50.874;6.466;2024-01-10T18:51:09;101753.56;;;-5.83;91.07
63115;BME280;49208;50.874;6.466;2024-01-10T18:53:34;101752.47;;;-5.89;91.62
63115;BME280;49208;50.874;6.466;2024-01-10T18:56:00;101759.09;;;-5.94;92.32
63115;BME280;49208;50.874;6.466;2024-01-10T18:58:25;101759.72;;;-5.99;92.28
63115;BME280;49208;50.874;6.466;2024-01-10T19:00:51;101776.94;;;-6.00;92.23
63115;BME280;49208;50.874;6.466;2024-01-10T19:03:16;101774.28;;;-6.01;92.49
63115;BME280;49208;50.874;6.466;2024-01-10T19:05:42;101779.47;;;-6.01;92.80
63115;BME280;49208;50.874;6.466;2024-01-10T19:08:09;101788.13;;;-6.01;92.71
63115;BME280;49208;50.874;6.466;2024-01-10T19:10:35;101786.34;;;-6.02;92.58
63115;BME280;49208;50.874;6.466;2024-01-10T19:13:01;101792.25;;;-6.04;92.38
63115;BME280;49208;50.874;6.466;2024-01-10T19:15:26;101786.97;;;-6.06;92.65
63115;BME280;49208;50.874;6.466;2024-01-10T19:17:51;101783.50;;;-6.06;92.70
63115;BME280;49208;50.874;6.466;2024-01-10T19:20:17;101786.00;;;-6.08;92.77
63115;BME280;49208;50.874;6.466;2024-01-10T19:22:42;101783.50;;;-6.06;92.83
63115;BME280;49208;50.874;6.466;2024-01-10T19:25:08;101780.78;;;-6.10;92.57
63115;BME280;49208;50.874;6.466;2024-01-10T19:27:33;101784.06;;;-6.12;93.24
63115;BME280;49208;50.874;6.466;2024-01-10T19:29:58;101788.31;;;-6.14;92.86
63115;BME280;49208;50.874;6.466;2024-01-10T19:32:24;101796.00;;;-6.16;93.25
63115;BME280;49208;50.874;6.466;2024-01-10T19:34:49;101792.34;;;-6.19;93.61
63115;BME280;49208;50.874;6.466;2024-01-10T19:37:16;101795.56;;;-6.23;93.86
63115;BME280;49208;50.874;6.466;2024-01-10T19:39:44;101792.63;;;-6.30;94.00
63115;BME280;49208;50.874;6.466;2024-01-10T19:42:09;101794.16;;;-6.33;94.66
63115;BME280;49208;50.874;6.466;2024-01-10T19:44:34;101792.31;;;-6.36;95.05
63115;BME280;49208;50.874;6.466;2024-01-10T19:47:00;101800.81;;;-6.38;95.20
63115;BME280;49208;50.874;6.466;2024-01-10T19:49:25;101795.53;;;-6.40;96.04
63115;BME280;49208;50.874;6.466;2024-01-10T19:51:51;101806.78;;;-6.39;95.80
63115;BME280;49208;50.874;6.466;2024-01-10T19:54:16;101803.22;;;-6.41;95.91
63115;BME280;49208;50.874;6.466;2024-01-10T19:56:42;101798.84;;;-6.42;96.03